Time;durP1;ratioP1;P1;durP2;ratioP2;P2;SDS_P1;SDS_P2;PMS_P1;PMS_P2;Temp;Humidity;BMP_temperature;BMP_pressure;BME280_temperature;BME280_humidity;BME280_pressure;Samples;Min_cycle;Max_cycle;Signal;HPM_P1;HPM_P2
2022/10/06 00:00:40;;;;;;;4.53;3.33;;;;;;;14.21;100.00;101820.84;5037871;28;20482;-85
2022/10/06 00:03:05;;;;;;;5.80;3.53;;;;;;;14.20;100.00;101816.56;5041458;28;20394;-84
2022/10/06 00:05:31;;;;;;;5.97;4.10;;;;;;;14.19;100.00;101820.16;5029644;28;20124;-84
2022/10/06 00:07:57;;;;;;;5.10;3.60;;;;;;;14.15;100.00;101810.94;5014294;28;20446;-84
2022/10/06 00:10:23;;;;;;;5.07;4.03;;;;;;;14.17;100.00;101812.44;5039210;28;20037;-85
2022/10/06 00:12:50;;;;;;;6.72;4.40;;;;;;;14.18;100.00;101818.50;5034605;28;20033;-84
2022/10/06 00:15:19;;;;;;;6.45;3.97;;;;;;;14.20;100.00;101820.00;5033512;28;20053;-85
2022/10/06 00:17:45;;;;;;;5.90;3.67;;;;;;;14.24;100.00;101812.72;5048823;28;20040;-85
2022/10/06 00:20:10;;;;;;;4.32;3.75;;;;;;;14.26;100.00;101816.84;5047908;28;20037;-84
2022/10/06 00:22:40;;;;;;;4.63;4.00;;;;;;;14.28;100.00;101814.09;5030523;28;20025;-85
2022/10/06 00:25:07;;;;;;;7.90;3.88;;;;;;;14.26;100.00;101813.41;5038293;28;20879;-84
2022/10/06 00:27:35;;;;;;;4.13;3.70;;;;;;;14.26;100.00;101818.66;5046185;28;20033;-84
2022/10/06 00:30:02;;;;;;;4.47;3.85;;;;;;;14.25;100.00;101815.19;5047671;28;20029;-84
2022/10/06 00:32:27;;;;;;;4.70;4.22;;;;;;;14.21;100.00;101813.81;5010541;28;20037;-85
2022/10/06 00:34:53;;;;;;;8.27;4.50;;;;;;;14.19;100.00;101820.97;5037094;28;20032;-84
2022/10/06 00:37:18;;;;;;;6.10;4.13;;;;;;;14.19;100.00;101815.75;5047612;28;20112;-84
2022/10/06 00:39:46;;;;;;;6.28;3.97;;;;;;;14.23;100.00;101813.69;5046541;28;20541;-85
2022/10/06 00:42:26;;;;;;;8.18;3.90;;;;;;;14.28;100.00;101812.31;5046451;28;20048;-85
2022/10/06 00:44:52;;;;;;;5.30;4.10;;;;;;;14.32;100.00;101806.78;5044405;28;20048;-83
2022/10/06 00:47:21;;;;;;;6.50;4.97;;;;;;;14.33;100.00;101803.22;5061756;28;20029;-84
2022/10/06 00:49:47;;;;;;;9.00;4.75;;;;;;;14.33;100.00;101796.16;5057413;28;20043;-84
2022/10/06 00:52:20;;;;;;;7.03;4.47;;;;;;;14.33;100.00;101800.59;5036017;28;20021;-84
2022/10/06 00:54:45;;;;;;;4.68;3.78;;;;;;;14.38;100.00;101803.63;5024481;28;20055;-84
2022/10/06 00:57:11;;;;;;;11.65;4.75;;;;;;;14.33;100.00;101796.16;5043737;28;20509;-85
2022/10/06 00:59:38;;;;;;;9.88;5.00;;;;;;;14.29;100.00;101800.84;5045710;28;20405;-85
2022/10/06 01:02:14;;;;;;;7.53;4.75;;;;;;;14.33;100.00;101790.09;5046389;28;20607;-85
2022/10/06 01:04:43;;;;;;;11.32;4.88;;;;;;;14.34;100.00;101791.75;5040517;28;20512;-86
2022/10/06 01:07:10;;;;;;;5.70;4.47;;;;;;;14.34;100.00;101789.97;5042513;28;20048;-85
2022/10/06 01:09:36;;;;;;;5.80;4.38;;;;;;;14.35;100.00;101788.16;5036860;28;20528;-85
2022/10/06 01:12:05;;;;;;;12.50;4.85;;;;;;;14.31;100.00;101792.03;5034322;28;20136;-85
2022/10/06 01:14:31;;;;;;;4.95;4.45;;;;;;;14.28;100.00;101790.50;5040832;28;20095;-85
2022/10/06 01:17:11;;;;;;;8.35;4.50;;;;;;;14.28;100.00;101778.22;5033610;28;20044;-85
2022/10/06 01:19:53;;;;;;;8.43;4.75;;;;;;;14.26;100.00;101774.91;5028946;28;20523;-84
2022/10/06 01:22:45;;;;;;;7.22;4.68;;;;;;;14.26;100.00;101774.91;5043415;28;20060;-84
2022/10/06 01:25:16;;;;;;;5.97;4.60;;;;;;;14.26;100.00;101767.06;5038023;28;20052;-84
2022/10/06 01:27:45;;;;;;;7.00;4.22;;;;;;;14.25;100.00;101770.63;5041942;28;20591;-83
2022/10/06 01:30:18;;;;;;;8.70;4.88;;;;;;;14.22;100.00;101770.91;5030320;28;20484;-84
2022/10/06 01:32:44;;;;;;;9.63;4.30;;;;;;;14.22;100.00;101775.31;5048183;28;20068;-84
2022/10/06 01:35:10;;;;;;;5.13;4.63;;;;;;;14.17;100.00;101770.50;5044555;28;20025;-84
2022/10/06 01:37:36;;;;;;;4.22;3.83;;;;;;;14.13;100.00;101773.53;5028674;28;20025;-84
2022/10/06 01:40:01;;;;;;;5.10;3.70;;;;;;;14.09;100.00;101775.59;5046354;28;20040;-84
2022/10/06 01:42:30;;;;;;;5.57;4.03;;;;;;;14.05;100.00;101768.97;5042531;28;20073;-84
2022/10/06 01:44:56;;;;;;;6.20;3.92;;;;;;;14.03;100.00;101767.44;5042800;28;20021;-84
2022/10/06 01:47:21;;;;;;;7.57;4.30;;;;;;;14.01;100.00;101775.44;5028848;28;20044;-84
2022/10/06 01:49:47;;;;;;;13.18;4.90;;;;;;;13.97;100.00;101779.28;5047654;28;20127;-84
2022/10/06 01:52:12;;;;;;;4.85;4.35;;;;;;;13.93;100.00;101767.44;5027579;28;20037;-84
2022/10/06 01:54:37;;;;;;;5.93;4.45;;;;;;;13.91;100.00;101774.59;5043883;28;20055;-84
2022/10/06 01:57:05;;;;;;;8.38;4.95;;;;;;;13.88;100.00;101774.84;5028195;28;20156;-83
2022/10/06 01:59:30;;;;;;;5.90;4.05;;;;;;;13.86;100.00;101782.84;5044104;28;20044;-84
2022/10/06 02:01:56;;;;;;;7.00;5.38;;;;;;;13.87;100.00;101778.44;5046318;28;20036;-83
2022/10/06 02:04:21;;;;;;;7.95;6.00;;;;;;;13.88;100.00;101770.44;5047459;28;20115;-83
2022/10/06 02:06:46;;;;;;;8.23;5.63;;;;;;;13.90;100.00;101768.53;5028922;28;20029;-84
2022/10/06 02:09:12;;;;;;;11.80;6.53;;;;;;;13.92;100.00;101771.84;5040126;28;20114;-83
2022/10/06 02:11:37;;;;;;;10.88;6.53;;;;;;;13.95;100.00;101770.75;5045013;28;20041;-83
2022/10/06 02:14:03;;;;;;;10.35;6.85;;;;;;;13.95;100.00;101770.75;5039775;28;20029;-83
2022/10/06 02:16:29;;;;;;;5.22;4.72;;;;;;;13.99;100.00;101774.75;5042785;28;20036;-84
2022/10/06 02:18:54;;;;;;;12.25;6.18;;;;;;;14.04;100.00;101769.94;5047160;28;20061;-83
2022/10/06 02:21:21;;;;;;;7.30;6.45;;;;;;;14.07;100.00;101767.06;5021131;28;20397;-83
2022/10/06 02:23:47;;;;;;;8.05;5.95;;;;;;;14.12;100.00;101766.66;5044282;28;20040;-83
2022/10/06 02:26:16;;;;;;;8.38;7.47;;;;;;;14.15;100.00;101774.25;5020112;28;20033;-83
2022/10/06 02:28:43;;;;;;;8.65;7.45;;;;;;;14.15;100.00;101767.19;5037836;28;20130;-84
2022/10/06 02:31:09;;;;;;;7.47;6.70;;;;;;;14.18;100.00;101766.06;5029829;28;20116;-84
2022/10/06 02:33:36;;;;;;;8.30;6.25;;;;;;;14.21;100.00;101771.88;5044981;28;20025;-84
2022/10/06 02:36:04;;;;;;;8.90;6.82;;;;;;;14.20;100.00;101767.59;5025242;28;20033;-84
2022/10/06 02:38:30;;;;;;;9.18;7.05;;;;;;;14.21;100.00;101769.25;5030998;28;20056;-85
2022/10/06 02:40:57;;;;;;;10.02;6.57;;;;;;;14.24;100.00;101773.41;5044928;28;20036;-84
2022/10/06 02:43:23;;;;;;;9.57;7.05;;;;;;;14.25;100.00;101782.91;5047114;28;20084;-85
2022/10/06 02:46:01;;;;;;;6.47;5.80;;;;;;;14.26;100.00;101780.16;5045997;28;20071;-85
2022/10/06 02:48:28;;;;;;;10.80;6.60;;;;;;;14.28;100.00;101786.09;5050663;28;20036;-85
2022/10/06 02:50:58;;;;;;;8.48;6.88;;;;;;;14.27;100.00;101776.56;5302621;23;20008;-85
2022/10/06 02:53:24;;;;;;;11.80;7.30;;;;;;;14.27;100.00;101778.38;5030292;28;20063;-84
2022/10/06 02:56:00;;;;;;;9.73;8.38;;;;;;;14.24;100.00;101776.84;5030603;28;20068;-83
2022/10/06 02:58:29;;;;;;;10.65;7.70;;;;;;;14.31;100.00;101778.91;5030421;28;20049;-84
2022/10/06 03:01:01;;;;;;;10.15;7.50;;;;;;;14.32;100.00;101788.44;5030418;28;20061;-84
2022/10/06 03:03:27;;;;;;;9.57;7.18;;;;;;;14.32;100.00;101785.81;5030545;28;20075;-83
2022/10/06 03:06:00;;;;;;;9.70;7.75;;;;;;;14.34;100.00;101787.34;5030694;28;20041;-84
2022/10/06 03:08:25;;;;;;;15.85;8.50;;;;;;;14.39;100.00;101784.31;5012380;28;20051;-84
2022/10/06 03:10:51;;;;;;;12.88;8.55;;;;;;;14.42;100.00;101786.69;5030081;28;20029;-83
2022/10/06 03:13:16;;;;;;;11.10;8.60;;;;;;;14.45;100.00;101786.41;5030441;28;20053;-83
2022/10/06 03:15:42;;;;;;;12.85;9.00;;;;;;;14.49;100.00;101779.94;5030438;28;20025;-83
2022/10/06 03:18:07;;;;;;;10.98;8.38;;;;;;;14.53;100.00;101782.16;5030210;28;20029;-83
2022/10/06 03:20:33;;;;;;;13.13;8.27;;;;;;;14.55;100.00;101774.97;5030111;28;20037;-84
2022/10/06 03:22:58;;;;;;;15.23;8.88;;;;;;;14.59;100.00;101780.78;5030201;28;20025;-83
2022/10/06 03:25:24;;;;;;;14.00;8.30;;;;;;;14.62;100.00;101780.50;5029803;28;20117;-85
2022/10/06 03:27:50;;;;;;;13.90;7.82;;;;;;;14.65;100.00;101785.44;5030213;28;20026;-84
2022/10/06 03:30:15;;;;;;;9.77;8.05;;;;;;;14.68;100.00;101781.69;5011975;28;20087;-83
2022/10/06 03:32:41;;;;;;;10.07;6.88;;;;;;;14.69;100.00;101780.75;5030287;28;20080;-84
2022/10/06 03:35:07;;;;;;;8.60;6.38;;;;;;;14.69;100.00;101789.44;5030204;28;20109;-85
2022/10/06 03:37:32;;;;;;;10.35;6.78;;;;;;;14.66;100.00;101787.09;5029887;28;20099;-84
2022/10/06 03:39:59;;;;;;;8.93;6.50;;;;;;;14.63;100.00;101783.94;5029551;28;20560;-85
2022/10/06 03:42:24;;;;;;;6.35;5.85;;;;;;;14.61;100.00;101784.09;5029681;28;20105;-85
2022/10/06 03:44:49;;;;;;;10.32;6.78;;;;;;;14.57;100.00;101780.91;5022170;28;20666;-84
2022/10/06 03:47:15;;;;;;;6.45;5.80;;;;;;;14.58;100.00;101786.97;5049628;28;20029;-84
2022/10/06 03:49:40;;;;;;;8.70;7.35;;;;;;;14.58;100.00;101792.22;5049550;28;20492;-85
2022/10/06 03:52:06;;;;;;;16.05;7.95;;;;;;;14.54;100.00;101782.97;5031108;28;20123;-85
2022/10/06 03:54:31;;;;;;;9.20;7.72;;;;;;;14.55;100.00;101788.09;5049259;28;20025;-85
2022/10/06 03:56:57;;;;;;;10.05;7.93;;;;;;;14.56;100.00;101787.13;5049555;28;20096;-84
2022/10/06 03:59:22;;;;;;;11.00;7.45;;;;;;;14.59;100.00;101788.63;5031256;28;20021;-83
2022/10/06 04:01:47;;;;;;;13.82;8.88;;;;;;;14.63;100.00;101794.44;5049274;28;20171;-84
2022/10/06 04:04:13;;;;;;;14.10;9.15;;;;;;;14.63;100.00;101791.81;5049157;28;20033;-83
2022/10/06 04:06:40;;;;;;;10.30;8.38;;;;;;;14.65;100.00;101797.75;5049448;28;20110;-82
2022/10/06 04:09:09;;;;;;;15.70;10.07;;;;;;;14.66;100.00;101792.34;5048859;28;20025;-83
2022/10/06 04:11:37;;;;;;;18.17;10.25;;;;;;;14.67;100.00;101798.41;5049219;28;20029;-83
2022/10/06 04:14:05;;;;;;;15.00;8.98;;;;;;;14.68;100.00;101793.03;5049098;28;20079;-83
2022/10/06 04:16:33;;;;;;;18.15;9.90;;;;;;;14.69;100.00;101797.31;5048979;28;20017;-84
2022/10/06 04:19:00;;;;;;;15.82;10.68;;;;;;;14.71;100.00;101795.38;5048950;28;20119;-84
2022/10/06 04:21:27;;;;;;;12.13;9.25;;;;;;;14.75;100.00;101802.00;5031076;28;20029;-83
2022/10/06 04:23:54;;;;;;;15.88;9.75;;;;;;;14.76;100.00;101798.41;5048344;28;20101;-83
2022/10/06 04:26:22;;;;;;;14.65;9.27;;;;;;;14.74;100.00;101789.84;5049451;28;20025;-83
2022/10/06 04:28:49;;;;;;;13.90;8.70;;;;;;;14.76;100.00;101794.97;5048980;28;20067;-83
2022/10/06 04:31:20;;;;;;;14.73;9.10;;;;;;;14.77;100.00;101799.25;5049186;28;20021;-83
2022/10/06 04:33:49;;;;;;;9.85;7.40;;;;;;;14.77;100.00;101802.69;5048799;28;20207;-83
2022/10/06 04:36:21;;;;;;;10.48;7.78;;;;;;;14.75;100.00;101804.63;5061298;28;20013;-83
2022/10/06 04:38:50;;;;;;;9.20;7.50;;;;;;;14.75;100.00;101804.63;5074899;28;20024;-84
2022/10/06 04:41:18;;;;;;;9.85;7.35;;;;;;;14.76;100.00;101814.16;5069786;28;20037;-84
2022/10/06 04:43:48;;;;;;;8.07;7.10;;;;;;;14.76;100.00;101806.28;5053554;28;20032;-83
2022/10/06 04:46:14;;;;;;;12.38;8.00;;;;;;;14.77;100.00;101800.06;5030566;28;20040;-83
2022/10/06 04:48:40;;;;;;;15.20;8.18;;;;;;;14.77;100.00;101800.06;5048224;28;20025;-83
2022/10/06 04:51:08;;;;;;;13.77;8.43;;;;;;;14.77;100.00;101794.81;5047853;28;20051;-84
2022/10/06 04:53:34;;;;;;;11.73;8.80;;;;;;;14.77;100.00;101801.84;5030383;28;20032;-84
2022/10/06 04:56:05;;;;;;;13.23;8.15;;;;;;;14.75;100.00;101799.38;5048172;28;20546;-84
2022/10/06 04:58:36;;;;;;;16.08;9.35;;;;;;;14.75;100.00;101801.16;5049705;28;20053;-84
2022/10/06 05:01:03;;;;;;;14.77;10.02;;;;;;;14.78;100.00;101801.72;5010689;28;20037;-84
2022/10/06 05:03:29;;;;;;;20.42;11.70;;;;;;;14.82;100.00;101797.84;5046750;28;20050;-83
2022/10/06 05:06:09;;;;;;;16.80;9.88;;;;;;;14.78;100.00;101800.91;5048250;28;20120;-84
2022/10/06 05:08:34;;;;;;;16.48;10.20;;;;;;;14.81;100.00;101806.69;5048200;28;20135;-84
2022/10/06 05:11:06;;;;;;;17.88;9.07;;;;;;;14.76;100.00;101798.41;5047958;28;20044;-84
2022/10/06 05:13:31;;;;;;;17.35;9.30;;;;;;;14.76;100.00;101802.81;5048124;28;20129;-84
2022/10/06 05:15:59;;;;;;;14.98;9.38;;;;;;;14.77;100.00;101804.47;5047648;28;20032;-83
2022/10/06 05:18:26;;;;;;;12.30;8.10;;;;;;;14.76;100.00;101803.66;5048056;28;20380;-83
2022/10/06 05:21:04;;;;;;;14.15;8.85;;;;;;;14.73;100.00;101803.94;5047993;28;20035;-84
2022/10/06 05:23:31;;;;;;;14.82;8.18;;;;;;;14.76;100.00;101808.91;5048072;28;20108;-84
2022/10/06 05:25:57;;;;;;;12.02;8.65;;;;;;;14.76;100.00;101808.91;5029709;28;20032;-82
2022/10/06 05:28:25;;;;;;;15.88;8.68;;;;;;;14.79;100.00;101813.88;5047468;28;20032;-84
2022/10/06 05:31:02;;;;;;;11.88;7.85;;;;;;;14.77;100.00;101820.22;5047923;28;20039;-84
2022/10/06 05:33:29;;;;;;;13.45;9.05;;;;;;;14.76;100.00;101808.91;5047748;28;20033;-84
2022/10/06 05:36:10;;;;;;;13.55;9.63;;;;;;;14.76;100.00;101806.28;5047722;28;20061;-84
2022/10/06 05:38:36;;;;;;;13.90;9.00;;;;;;;14.78;100.00;101806.97;5029674;28;20483;-84
2022/10/06 05:41:04;;;;;;;13.43;8.63;;;;;;;14.79;100.00;101807.81;5047879;28;20052;-84
2022/10/06 05:43:30;;;;;;;11.60;7.97;;;;;;;14.74;100.00;101810.84;5047331;28;20028;-85
2022/10/06 05:45:58;;;;;;;15.15;8.77;;;;;;;14.71;100.00;101815.53;5029499;28;20112;-84
2022/10/06 05:48:24;;;;;;;14.10;8.95;;;;;;;14.68;100.00;101810.56;5047449;28;20561;-85
2022/10/06 05:51:05;;;;;;;11.82;7.93;;;;;;;14.66;100.00;101813.31;5047482;28;20083;-84
2022/10/06 05:53:32;;;;;;;10.50;8.02;;;;;;;14.67;100.00;101812.34;5047410;28;20041;-83
2022/10/06 05:56:13;;;;;;;11.15;7.22;;;;;;;14.65;100.00;101809.03;5048100;28;20044;-83
2022/10/06 05:58:41;;;;;;;10.98;7.05;;;;;;;14.67;100.00;101814.16;5041836;23;20118;-67
2022/10/06 06:01:13;;;;;;;11.40;7.82;;;;;;;14.65;100.00;101822.16;5047651;28;20458;-68
2022/10/06 06:03:40;;;;;;;8.18;6.18;;;;;;;14.68;100.00;101810.56;5046125;28;20400;-68
2022/10/06 06:06:23;;;;;;;15.25;7.55;;;;;;;14.69;100.00;101822.72;5047383;28;20037;-68
2022/10/06 06:08:54;;;;;;;7.75;6.95;;;;;;;14.76;100.00;101824.66;5051121;28;20393;-68
2022/10/06 06:11:24;;;;;;;8.55;7.35;;;;;;;14.84;100.00;101824.78;5051869;28;20439;-68
2022/10/06 06:13:57;;;;;;;9.75;7.85;;;;;;;14.91;100.00;101828.50;5051623;28;20107;-67
2022/10/06 06:16:23;;;;;;;9.27;7.15;;;;;;;14.98;100.00;101827.94;5051411;28;20025;-68
2022/10/06 06:18:49;;;;;;;11.32;6.57;;;;;;;15.02;100.00;101834.59;5051473;28;20031;-68
2022/10/06 06:21:16;;;;;;;11.23;6.63;;;;;;;15.06;100.00;101843.84;5051481;28;20025;-67
2022/10/06 06:23:46;;;;;;;13.25;7.07;;;;;;;15.10;100.00;101843.41;5050120;28;20021;-68
2022/10/06 06:26:17;;;;;;;13.70;6.80;;;;;;;15.15;100.00;101843.78;5051241;28;20035;-67
2022/10/06 06:28:47;;;;;;;12.57;6.78;;;;;;;15.22;100.00;101844.06;5050829;28;20033;-68
2022/10/06 06:31:22;;;;;;;12.55;6.97;;;;;;;15.24;100.00;101844.75;5049661;28;20543;-68
2022/10/06 06:33:51;;;;;;;9.30;6.30;;;;;;;15.26;100.00;101843.63;5051359;28;20499;-67
2022/10/06 06:36:25;;;;;;;9.25;7.15;;;;;;;15.29;100.00;101850.41;5051482;28;20131;-68
2022/10/06 06:38:53;;;;;;;7.97;6.18;;;;;;;15.37;100.00;101853.16;5051166;28;20032;-68
2022/10/06 06:41:21;;;;;;;9.73;5.90;;;;;;;15.44;100.00;101856.88;5050837;28;20040;-68
2022/10/06 06:43:47;;;;;;;10.45;6.10;;;;;;;15.51;100.00;101857.13;5051263;28;20039;-68
2022/10/06 06:46:16;;;;;;;10.90;6.15;;;;;;;15.44;100.00;101856.88;5049564;28;20028;-68
2022/10/06 06:48:42;;;;;;;10.52;6.63;;;;;;;15.40;100.00;101850.25;5050873;28;20388;-68
2022/10/06 06:51:12;;;;;;;7.22;6.05;;;;;;;15.39;100.00;101853.00;5050927;28;20029;-68
2022/10/06 06:53:38;;;;;;;10.85;5.80;;;;;;;15.43;100.00;101857.84;5050604;28;20540;-68
2022/10/06 06:56:05;;;;;;;12.48;5.85;;;;;;;15.47;100.00;101861.84;5050915;28;20048;-68
2022/10/06 06:58:31;;;;;;;8.43;5.40;;;;;;;15.51;100.00;101873.72;5050518;28;20111;-68
2022/10/06 07:01:13;;;;;;;8.98;5.95;;;;;;;15.51;100.00;101868.47;5050736;28;20021;-68
2022/10/06 07:03:40;;;;;;;10.80;5.40;;;;;;;15.57;100.00;101870.56;5050548;28;20039;-70
2022/10/06 07:06:08;;;;;;;13.40;6.55;;;;;;;15.64;100.00;101873.41;5049176;28;20029;-68
2022/10/06 07:08:41;;;;;;;9.02;6.72;;;;;;;15.69;100.00;101873.81;5050430;28;20029;-69
2022/10/06 07:11:26;;;;;;;12.70;6.72;;;;;;;15.74;100.00;101874.22;5048894;28;20483;-68
2022/10/06 07:13:54;;;;;;;10.15;7.15;;;;;;;15.82;100.00;101873.50;5050689;28;20143;-68
2022/10/06 07:25:07;;;;;;;10.40;6.32;;;;;;;15.97;100.00;101885.19;5050299;28;20142;-68
2022/10/06 07:27:42;;;;;;;11.90;8.32;;;;;;;16.04;100.00;101888.91;5049955;28;20048;-68
2022/10/06 07:30:28;;;;;;;9.52;7.28;;;;;;;16.08;100.00;101882.34;5050290;28;20029;-67
2022/10/06 07:32:54;;;;;;;9.05;7.18;;;;;;;16.12;100.00;101883.72;5049643;28;20055;-68
2022/10/06 07:35:21;;;;;;;9.00;7.15;;;;;;;16.16;100.00;101885.09;5049877;28;20758;-67
2022/10/06 07:37:48;;;;;;;8.95;5.95;;;;;;;16.16;100.00;101882.47;5049120;28;20056;-68
2022/10/06 07:40:13;;;;;;;11.13;7.10;;;;;;;16.18;100.00;101891.03;5038008;28;20132;-67
2022/10/06 07:42:50;;;;;;;7.53;5.47;;;;;;;16.28;100.00;101888.34;5049753;28;20064;-66
2022/10/06 07:45:37;;;;;;;8.43;6.22;;;;;;;16.30;100.00;101890.84;5049752;28;20036;-66
2022/10/06 07:48:04;;;;;;;5.97;5.05;;;;;;;16.36;100.00;101882.38;5049509;28;20228;-67
2022/10/06 07:50:30;;;;;;;12.55;5.43;;;;;;;16.44;100.00;101878.03;5049678;28;20099;-67
2022/10/06 07:52:56;;;;;;;6.20;5.38;;;;;;;16.47;100.00;101877.72;5048224;28;20040;-66
2022/10/06 07:55:22;;;;;;;10.07;5.43;;;;;;;16.57;100.00;101877.63;5049807;28;20107;-67
2022/10/06 07:57:50;;;;;;;7.97;6.00;;;;;;;16.62;100.00;101887.72;5049752;28;20410;-67
2022/10/06 08:00:19;;;;;;;8.55;7.05;;;;;;;16.62;100.00;101888.53;5064560;28;20029;-68
2022/10/06 08:02:44;;;;;;;10.88;7.65;;;;;;;16.57;100.00;101886.34;5047900;28;20036;-67
2022/10/06 08:05:10;;;;;;;14.35;9.25;;;;;;;16.61;100.00;101889.50;5049301;28;20543;-67
2022/10/06 08:07:35;;;;;;;8.55;6.82;;;;;;;16.61;100.00;101876.34;5049257;28;20067;-66
2022/10/06 08:10:01;;;;;;;10.23;7.65;;;;;;;16.63;100.00;101876.22;5049345;28;20057;-67
2022/10/06 08:12:32;;;;;;;9.82;7.55;;;;;;;16.66;100.00;101883.84;5049195;28;20469;-66
2022/10/06 08:15:10;;;;;;;11.23;8.52;;;;;;;16.71;100.00;101885.03;5048971;28;20025;-67
2022/10/06 08:17:36;;;;;;;12.38;8.25;;;;;;;16.84;100.00;101889.94;5047584;28;20529;-66
2022/10/06 08:23:23;;;;;;;10.00;6.85;;;;;;;16.94;100.00;101889.88;5049129;28;20051;-66
2022/10/06 08:25:52;;;;;;;10.80;7.38;;;;;;;17.15;100.00;101885.09;5049112;28;20108;-66
2022/10/06 08:28:19;;;;;;;9.40;6.65;;;;;;;17.33;100.00;101896.41;5047533;28;20033;-67
2022/10/06 08:30:45;;;;;;;12.23;7.60;;;;;;;17.48;100.00;101894.88;5049052;28;20333;-67
2022/10/06 08:33:11;;;;;;;11.23;7.55;;;;;;;17.41;100.00;101893.84;5048862;28;20044;-66
2022/10/06 08:35:38;;;;;;;10.25;8.75;;;;;;;17.40;100.00;101896.63;5048854;28;20094;-66
2022/10/06 08:38:04;;;;;;;12.80;7.93;;;;;;;17.31;100.00;101900.19;5048485;28;20043;-67
2022/10/06 08:40:30;;;;;;;10.55;8.15;;;;;;;17.28;100.00;101888.16;5048611;28;20151;-67
2022/10/06 08:42:59;;;;;;;12.52;8.85;;;;;;;17.29;100.00;101897.72;5048572;28;20510;-67
2022/10/06 08:45:42;;;;;;;14.77;8.35;;;;;;;17.28;100.00;101903.97;5047078;28;20029;-67
2022/10/06 08:48:16;;;;;;;13.32;8.32;;;;;;;17.34;100.00;101903.34;5048921;28;20175;-66
2022/10/06 08:51:10;;;;;;;11.10;7.68;;;;;;;17.36;100.00;101903.19;5048895;28;20075;-66
2022/10/06 08:54:07;;;;;;;9.82;7.82;;;;;;;17.41;100.00;101907.03;5048420;28;20033;-66
2022/10/06 08:56:55;;;;;;;11.73;7.25;;;;;;;17.51;100.00;101894.56;5048357;28;20066;-68
2022/10/06 08:59:21;;;;;;;8.45;7.63;;;;;;;17.56;100.00;101899.34;5048151;28;20053;-66
2022/10/06 09:01:50;;;;;;;10.23;6.80;;;;;;;17.59;100.00;101897.25;5048469;28;20025;-66
2022/10/06 09:04:27;;;;;;;12.07;7.68;;;;;;;17.74;100.00;101899.34;5046987;28;20131;-65
2022/10/06 09:07:11;;;;;;;8.52;6.90;;;;;;;17.73;100.00;101898.50;5046678;28;20037;-65
2022/10/06 09:09:53;;;;;;;10.80;7.65;;;;;;;17.77;100.00;101901.66;5048176;28;20045;-65
2022/10/06 09:12:45;;;;;;;9.00;6.53;;;;;;;17.87;100.00;101905.00;5046716;28;20028;-65
2022/10/06 09:15:13;;;;;;;11.50;7.00;;;;;;;17.87;100.00;101902.38;5046549;28;20422;-66
2022/10/06 09:17:48;;;;;;;8.27;7.07;;;;;;;17.84;100.00;101897.41;5047711;28;20484;-68
2022/10/06 09:20:24;;;;;;;8.73;6.93;;;;;;;17.89;100.00;101892.50;5046854;28;20029;-66
2022/10/06 09:22:53;;;;;;;9.07;6.35;;;;;;;17.89;100.00;101895.13;5047935;28;20503;-67
2022/10/06 09:25:27;;;;;;;6.60;5.85;;;;;;;17.93;100.00;101893.00;5048060;28;20377;-66
2022/10/06 09:27:54;;;;;;;16.80;6.22;;;;;;;17.98;100.00;101891.53;5047858;28;20233;-67
2022/10/06 09:30:20;;;;;;;10.32;5.80;;;;;;;18.11;100.00;101885.81;5048130;28;20072;-66
2022/10/06 09:32:52;;;;;;;10.05;6.15;;;;;;;18.27;100.00;101898.25;5047977;28;20067;-65
2022/10/06 09:35:22;;;;;;;6.70;4.95;;;;;;;18.35;100.00;101891.19;5048048;28;20040;-66
2022/10/06 09:37:55;;;;;;;8.82;6.05;;;;;;;18.33;100.00;101892.34;5047795;28;20147;-65
2022/10/06 09:40:40;;;;;;;8.95;6.75;;;;;;;18.25;100.00;101893.13;5047688;28;20029;-65
2022/10/06 09:43:26;;;;;;;7.53;5.75;;;;;;;18.17;100.00;101888.66;5047599;28;20116;-67
2022/10/06 09:45:53;;;;;;;10.43;6.45;;;;;;;18.21;100.00;101881.25;5047807;28;20025;-66
2022/10/06 09:48:25;;;;;;;9.90;6.60;;;;;;;18.23;100.00;101880.09;5047822;28;20067;-67
2022/10/06 09:51:13;;;;;;;10.63;7.93;;;;;;;18.30;100.00;101882.09;5047440;28;20527;-67
2022/10/06 09:53:43;;;;;;;9.02;6.28;;;;;;;18.33;100.00;101879.97;5047512;28;20102;-66
2022/10/06 09:56:20;;;;;;;7.13;6.43;;;;;;;18.54;100.00;101874.22;5047973;28;20116;-67
2022/10/06 09:58:57;;;;;;;9.15;5.65;;;;;;;18.59;100.00;101879.84;5045922;28;20084;-67
2022/10/06 10:01:26;;;;;;;7.75;5.85;;;;;;;18.50;100.00;101876.34;5047472;28;20556;-65
2022/10/06 10:03:59;;;;;;;7.55;5.10;;;;;;;18.45;100.00;101883.94;5047815;28;20367;-65
2022/10/06 10:06:33;;;;;;;8.93;7.13;;;;;;;18.66;100.00;101875.59;5046155;28;20489;-66
2022/10/06 10:09:22;;;;;;;7.38;6.68;;;;;;;18.82;99.21;101870.34;5045989;28;20037;-67
2022/10/06 10:12:28;;;;;;;9.52;5.70;;;;;;;18.79;100.00;101869.84;5047484;28;20132;-66
2022/10/06 10:15:00;;;;;;;10.83;6.30;;;;;;;18.75;100.00;101866.69;5045815;28;20037;-67
2022/10/06 10:17:38;;;;;;;7.85;5.50;;;;;;;18.72;100.00;101869.66;5047395;28;20285;-66
2022/10/06 10:20:18;;;;;;;6.30;5.30;;;;;;;18.69;100.00;101862.06;5047259;28;20087;-66
2022/10/06 10:22:46;;;;;;;7.18;5.13;;;;;;;18.75;100.00;101858.78;5047519;28;20041;-65
2022/10/06 10:25:15;;;;;;;7.32;5.00;;;;;;;18.85;100.00;101853.34;5047466;28;20125;-66
2022/10/06 10:27:58;;;;;;;6.25;4.68;;;;;;;18.85;100.00;101854.16;5047712;28;20497;-67
2022/10/06 10:30:23;;;;;;;5.35;4.55;;;;;;;18.94;100.00;101854.13;5047586;28;20037;-65
2022/10/06 10:33:03;;;;;;;8.00;4.80;;;;;;;18.95;100.00;101855.78;5047376;28;20444;-65
2022/10/06 10:35:39;;;;;;;6.55;5.13;;;;;;;18.98;100.00;101855.47;5047444;28;20377;-65
2022/10/06 10:38:20;;;;;;;6.95;4.88;;;;;;;19.00;100.00;101850.84;5045752;28;20043;-66
2022/10/06 10:40:58;;;;;;;6.03;4.40;;;;;;;19.06;100.00;101853.66;5047026;28;20021;-66
2022/10/06 10:43:49;;;;;;;5.10;4.60;;;;;;;19.04;100.00;101845.06;5047315;28;20029;-66
2022/10/06 10:46:22;;;;;;;7.15;4.60;;;;;;;19.09;100.00;101844.56;5047288;28;20036;-66
2022/10/06 10:49:03;;;;;;;6.60;4.70;;;;;;;19.11;100.00;101837.31;5047128;28;20128;-66
2022/10/06 10:51:52;;;;;;;8.13;4.40;;;;;;;19.14;100.00;101836.97;5047521;28;20033;-66
2022/10/06 10:54:45;;;;;;;5.22;4.40;;;;;;;19.15;100.00;101833.34;5031950;28;20029;-67
2022/10/06 10:57:20;;;;;;;5.57;4.03;;;;;;;19.13;100.00;101835.31;5051136;28;20040;-66
2022/10/06 10:59:46;;;;;;;;;;;;;;;19.13;100.00;101835.31;5051068;28;20043;-65
2022/10/06 11:02:18;;;;;;;5.68;3.60;;;;;;;19.24;100.00;101840.25;5049545;28;19916;-65
2022/10/06 11:04:49;;;;;;;5.72;3.38;;;;;;;19.33;100.00;101836.63;5050639;28;20433;-67
2022/10/06 11:07:19;;;;;;;7.97;3.80;;;;;;;19.42;100.00;101835.56;5050519;28;20090;-65
2022/10/06 11:10:19;;;;;;;5.40;3.50;;;;;;;19.42;100.00;101835.56;5050638;28;20442;-66
2022/10/06 11:13:13;;;;;;;4.65;3.80;;;;;;;19.41;100.00;101828.63;5050792;28;20040;-65
2022/10/06 11:16:16;;;;;;;6.43;3.63;;;;;;;19.46;100.00;101825.50;5050326;28;20040;-66
2022/10/06 11:18:59;;;;;;;6.38;4.07;;;;;;;19.49;99.72;101830.44;5050685;28;20052;-67
2022/10/06 11:21:38;;;;;;;5.75;3.10;;;;;;;19.46;100.00;101836.06;5050338;28;20080;-65
2022/10/06 11:24:30;;;;;;;5.32;3.05;;;;;;;19.53;99.95;101829.97;5048508;28;20029;-66
2022/10/06 11:27:16;;;;;;;8.23;3.72;;;;;;;19.69;100.00;101833.56;5050151;28;20533;-67
2022/10/06 11:29:47;;;;;;;6.43;3.88;;;;;;;19.62;99.16;101828.13;5065540;28;20029;-66
2022/10/06 11:32:35;;;;;;;3.95;3.08;;;;;;;19.62;100.00;101825.47;5050104;28;20093;-66
2022/10/06 11:35:02;;;;;;;8.50;3.92;;;;;;;19.82;98.64;101828.56;5049802;28;20407;-67
2022/10/06 11:37:46;;;;;;;6.00;4.25;;;;;;;19.82;98.33;101823.25;5050365;28;20033;-66
2022/10/06 11:40:25;;;;;;;9.10;3.50;;;;;;;19.80;100.00;101822.59;5050480;28;20025;-66
2022/10/06 11:43:13;;;;;;;6.63;3.92;;;;;;;19.78;100.00;101819.31;5052021;28;20436;-66